Country
Station

 

Weather  for  Bandarabbass  -  Iran    Iran

  
33 °C (91 °F)
    
 
 

Current METAR for Bandarabbass is :

OIKB 171830Z 07004KT 3500 BR NSC 33/29 Q0996 A2944

 

This is a report for Bandarabbass - Iran.
 
The report was made 20 minutes ago, at 18:30 UTC .
The wind was blowing at a speed of 2.1 meters per second (4.6 miles per hour) from east/northeast (070°).
 
The temperature was 33 °C (91 °F), with a dew-point at 29 °C (84 °F).
The temperature felt like 47 °C (117 °F).
 
The atmospheric pressure was 997 hPa (29.44 inHg).
The relative humidity was 79.6%.
 
The overall visibility was 3500 meter (11483 feet).
 
Currently mist.

 
 
 
 

Country :   A   B   C   D   E   F   G   H   I   J   K   L   M   N   O   P   Q   R   S   T   U   V   W   Y   Z

 

Site Info  |  Disclaimer  |  Credits  |  Privacy
Contact us  |  Add to favorites
© 2013-2018 METARs - All rights reserved